createdAt,value
2022-10-09T00:00:46.953Z,7.89
2022-10-09T00:01:46.703Z,7.89
2022-10-09T00:02:47.148Z,7.85
2022-10-09T00:03:46.691Z,7.84
2022-10-09T00:04:46.676Z,7.82
2022-10-09T00:05:46.623Z,7.82
2022-10-09T00:06:46.628Z,7.82
2022-10-09T00:07:47.076Z,7.82
2022-10-09T00:08:46.628Z,7.78
2022-10-09T00:09:46.595Z,7.81
2022-10-09T00:10:46.621Z,7.78
2022-10-09T00:11:46.565Z,7.79
2022-10-09T00:12:46.900Z,7.79
2022-10-09T00:13:46.559Z,7.78
2022-10-09T00:14:46.827Z,7.77
2022-10-09T00:15:46.570Z,7.79
2022-10-09T00:16:46.570Z,7.78
2022-10-09T00:17:46.513Z,7.77
2022-10-09T00:18:46.498Z,7.77
2022-10-09T00:19:46.502Z,7.78
2022-10-09T00:20:46.495Z,7.78
2022-10-09T00:21:46.749Z,7.77
2022-10-09T00:22:47.454Z,7.77
2022-10-09T00:23:46.459Z,7.75
2022-10-09T00:24:46.422Z,7.75
2022-10-09T00:25:46.431Z,7.75
2022-10-09T00:26:46.437Z,7.75
2022-10-09T00:27:46.424Z,7.74
2022-10-09T00:28:46.819Z,7.74
2022-10-09T00:29:46.374Z,7.72
2022-10-09T00:30:46.393Z,7.72
2022-10-09T00:31:46.372Z,7.72
2022-10-09T00:32:46.700Z,7.71
2022-10-09T00:33:46.353Z,7.72
2022-10-09T00:34:46.359Z,7.71
2022-10-09T00:35:46.603Z,7.69
2022-10-09T00:36:46.299Z,7.69
2022-10-09T00:37:46.306Z,7.69
2022-10-09T00:38:46.280Z,7.67
2022-10-09T00:39:46.260Z,7.67
2022-10-09T00:40:46.327Z,7.67
2022-10-09T00:41:46.249Z,7.63
2022-10-09T00:42:46.852Z,7.63
2022-10-09T00:43:46.229Z,7.62
2022-10-09T00:44:46.205Z,7.60
2022-10-09T00:45:46.250Z,7.59
2022-10-09T00:46:46.261Z,7.58
2022-10-09T00:47:46.181Z,7.58
2022-10-09T00:48:46.182Z,7.55
2022-10-09T00:49:46.493Z,7.52
2022-10-09T00:50:46.166Z,7.52
2022-10-09T00:51:46.149Z,7.52
2022-10-09T00:52:46.437Z,7.47
2022-10-09T00:53:46.129Z,7.47
2022-10-09T00:54:46.123Z,7.45
2022-10-09T00:55:46.127Z,7.42
2022-10-09T00:56:46.401Z,7.44
2022-10-09T00:57:46.100Z,7.42
2022-10-09T00:58:46.103Z,7.41
2022-10-09T00:59:46.075Z,7.40
2022-10-09T01:00:46.066Z,7.40
2022-10-09T01:01:46.168Z,7.41
2022-10-09T01:02:46.324Z,7.42
2022-10-09T01:03:46.299Z,7.44
2022-10-09T01:04:46.059Z,7.45
2022-10-09T01:05:46.001Z,7.45
2022-10-09T01:06:46.011Z,7.44
2022-10-09T01:07:45.989Z,7.44
2022-10-09T01:08:45.982Z,7.45
2022-10-09T01:09:45.957Z,7.45
2022-10-09T01:10:46.269Z,7.45
2022-10-09T01:11:45.941Z,7.44
2022-10-09T01:12:46.175Z,7.44
2022-10-09T01:13:45.915Z,7.44
2022-10-09T01:14:45.896Z,7.44
2022-10-09T01:15:45.965Z,7.42
2022-10-09T01:16:45.922Z,7.42
2022-10-09T01:17:46.159Z,7.41
2022-10-09T01:18:45.905Z,7.40
2022-10-09T01:19:45.851Z,7.40
2022-10-09T01:20:45.835Z,7.37
2022-10-09T01:21:45.839Z,7.37
2022-10-09T01:22:46.197Z,7.37
2022-10-09T01:23:45.829Z,7.35
2022-10-09T01:24:46.078Z,7.37
2022-10-09T01:25:45.822Z,7.34
2022-10-09T01:26:45.781Z,7.31
2022-10-09T01:27:45.771Z,7.32
2022-10-09T01:28:45.829Z,7.29
2022-10-09T01:29:45.761Z,7.27
2022-10-09T01:30:45.791Z,7.24
2022-10-09T01:31:45.745Z,7.23
2022-10-09T01:32:45.890Z,7.20
2022-10-09T01:33:45.711Z,7.19
2022-10-09T01:34:45.713Z,7.19
2022-10-09T01:35:45.696Z,7.17
2022-10-09T01:36:45.694Z,7.16
2022-10-09T01:37:45.979Z,7.15
2022-10-09T01:38:45.680Z,7.15
2022-10-09T01:39:45.655Z,7.16
2022-10-09T01:40:45.661Z,7.13
2022-10-09T01:41:45.647Z,7.15
2022-10-09T01:42:45.777Z,7.15
2022-10-09T01:43:45.610Z,7.16
2022-10-09T01:44:45.608Z,7.16
2022-10-09T01:45:45.579Z,7.15
2022-10-09T01:46:46.777Z,7.16
2022-10-09T01:47:45.576Z,7.15
2022-10-09T01:48:45.548Z,7.13
2022-10-09T01:49:45.823Z,7.15
2022-10-09T01:50:45.540Z,7.15
2022-10-09T01:51:45.525Z,7.12
2022-10-09T01:52:45.546Z,7.13
2022-10-09T01:53:45.510Z,7.15
2022-10-09T01:54:45.491Z,7.12
2022-10-09T01:55:45.474Z,7.12
2022-10-09T01:56:45.471Z,7.13
2022-10-09T01:57:45.475Z,7.13
2022-10-09T01:58:45.487Z,7.13
2022-10-09T01:59:45.428Z,7.15
2022-10-09T02:00:45.445Z,7.12
2022-10-09T02:01:45.895Z,7.12
2022-10-09T02:02:45.520Z,7.13
2022-10-09T02:03:45.408Z,7.13
2022-10-09T02:04:45.414Z,7.12
2022-10-09T02:05:45.402Z,7.09
2022-10-09T02:06:45.365Z,7.09
2022-10-09T02:07:45.358Z,7.08
2022-10-09T02:08:45.649Z,7.07
2022-10-09T02:09:45.330Z,7.08
2022-10-09T02:10:45.352Z,7.08
2022-10-09T02:11:45.321Z,7.08
2022-10-09T02:12:45.383Z,7.12
2022-10-09T02:13:45.321Z,7.12
2022-10-09T02:14:45.296Z,7.13
2022-10-09T02:15:45.576Z,7.13
2022-10-09T02:16:45.310Z,7.15
2022-10-09T02:17:45.242Z,7.17
2022-10-09T02:18:45.247Z,7.16
2022-10-09T02:19:45.230Z,7.17
2022-10-09T02:20:45.223Z,7.17
2022-10-09T02:21:46.590Z,7.16
2022-10-09T02:22:45.849Z,7.19
2022-10-09T02:23:45.197Z,7.19
2022-10-09T02:24:45.206Z,7.17
2022-10-09T02:25:45.159Z,7.17
2022-10-09T02:26:45.155Z,7.17
2022-10-09T02:27:45.150Z,7.17
2022-10-09T02:28:46.133Z,7.17
2022-10-09T02:29:45.405Z,7.19
2022-10-09T02:30:45.209Z,7.19
2022-10-09T02:31:45.150Z,7.17
2022-10-09T02:32:45.269Z,7.17
2022-10-09T02:33:45.081Z,7.19
2022-10-09T02:34:45.110Z,7.16
2022-10-09T02:35:45.053Z,7.16
2022-10-09T02:36:45.058Z,7.16
2022-10-09T02:37:45.038Z,7.15
2022-10-09T02:38:45.045Z,7.13
2022-10-09T02:39:45.016Z,7.12
2022-10-09T02:40:45.046Z,7.09
2022-10-09T02:41:45.282Z,7.07
2022-10-09T02:42:44.996Z,7.05
2022-10-09T02:43:44.975Z,7.04
2022-10-09T02:44:44.984Z,7.01
2022-10-09T02:45:44.950Z,6.99
2022-10-09T02:46:45.031Z,6.98
2022-10-09T02:47:44.950Z,6.95
2022-10-09T02:48:45.197Z,6.94
2022-10-09T02:49:44.914Z,6.90
2022-10-09T02:50:44.900Z,6.89
2022-10-09T02:51:44.902Z,6.89
2022-10-09T02:52:44.938Z,6.86
2022-10-09T02:53:44.864Z,6.83
2022-10-09T02:54:44.872Z,6.83
2022-10-09T02:55:45.129Z,6.83
2022-10-09T02:56:44.838Z,6.80
2022-10-09T02:57:44.828Z,6.81
2022-10-09T02:58:44.850Z,6.83
2022-10-09T02:59:44.802Z,6.81
2022-10-09T03:00:44.799Z,6.81
2022-10-09T03:01:44.905Z,6.83
2022-10-09T03:02:44.897Z,6.84
2022-10-09T03:03:44.761Z,6.83
2022-10-09T03:04:44.818Z,6.83
2022-10-09T03:05:44.747Z,6.83
2022-10-09T03:06:44.750Z,6.83
2022-10-09T03:07:45.000Z,6.83
2022-10-09T03:08:44.707Z,6.79
2022-10-09T03:09:44.716Z,6.79
2022-10-09T03:10:44.725Z,6.77
2022-10-09T03:11:44.676Z,6.76
2022-10-09T03:12:44.678Z,6.73
2022-10-09T03:13:44.656Z,6.73
2022-10-09T03:14:44.652Z,6.73
2022-10-09T03:15:44.695Z,6.72
2022-10-09T03:16:44.707Z,6.71
2022-10-09T03:17:44.632Z,6.71
2022-10-09T03:18:44.614Z,6.71
2022-10-09T03:19:44.922Z,6.71
2022-10-09T03:20:44.597Z,6.69
2022-10-09T03:21:44.571Z,6.68
2022-10-09T03:22:44.617Z,6.68
2022-10-09T03:23:44.555Z,6.62
2022-10-09T03:24:44.590Z,6.59
2022-10-09T03:25:44.547Z,6.53
2022-10-09T03:26:44.806Z,6.47
2022-10-09T03:27:44.516Z,6.43
2022-10-09T03:28:44.624Z,6.36
2022-10-09T03:29:44.495Z,6.33
2022-10-09T03:30:44.485Z,6.30
2022-10-09T03:31:52.320Z,6.28
2022-10-09T03:32:44.479Z,6.22
2022-10-09T03:33:44.734Z,6.19
2022-10-09T03:34:44.483Z,6.16
2022-10-09T03:35:44.441Z,6.11
2022-10-09T03:36:44.428Z,6.09
2022-10-09T03:37:44.415Z,6.06
2022-10-09T03:38:44.416Z,6.03
2022-10-09T03:39:44.385Z,6.01
2022-10-09T03:40:44.690Z,5.98
2022-10-09T03:41:44.379Z,5.93
2022-10-09T03:42:44.375Z,5.95
2022-10-09T03:43:44.348Z,5.95
2022-10-09T03:44:44.337Z,5.93
2022-10-09T03:45:44.330Z,5.93
2022-10-09T03:46:44.425Z,5.95
2022-10-09T03:47:44.584Z,5.95
2022-10-09T03:48:44.306Z,5.93
2022-10-09T03:49:44.293Z,5.93
2022-10-09T03:50:44.286Z,5.93
2022-10-09T03:51:44.266Z,5.93
2022-10-09T03:52:44.289Z,5.98
2022-10-09T03:53:44.259Z,5.96
2022-10-09T03:54:44.521Z,6.01
2022-10-09T03:55:44.224Z,6.00
2022-10-09T03:56:44.219Z,6.06
2022-10-09T03:57:44.209Z,6.10
2022-10-09T03:58:44.234Z,6.13
2022-10-09T03:59:44.178Z,6.13
2022-10-09T04:00:44.229Z,6.11
2022-10-09T04:01:44.475Z,6.11
2022-10-09T04:02:44.195Z,6.07
2022-10-09T04:03:44.182Z,6.04
2022-10-09T04:04:44.184Z,6.03
2022-10-09T04:05:44.121Z,5.96
2022-10-09T04:06:44.110Z,5.92
2022-10-09T04:07:44.098Z,5.91
2022-10-09T04:08:44.395Z,5.88
2022-10-09T04:09:44.077Z,5.85
2022-10-09T04:10:44.105Z,5.85
2022-10-09T04:11:44.053Z,5.89
2022-10-09T04:12:44.064Z,5.93
2022-10-09T04:13:44.033Z,6.00
2022-10-09T04:14:44.031Z,6.00
2022-10-09T04:15:44.328Z,6.03
2022-10-09T04:16:44.100Z,6.09
2022-10-09T04:17:43.996Z,6.09
2022-10-09T04:18:43.989Z,6.10
2022-10-09T04:19:43.982Z,6.09
2022-10-09T04:20:43.979Z,6.11
2022-10-09T04:21:43.960Z,6.10
2022-10-09T04:22:44.259Z,6.07
2022-10-09T04:23:43.930Z,6.04
2022-10-09T04:24:43.928Z,5.98
2022-10-09T04:25:43.916Z,5.93
2022-10-09T04:26:43.930Z,5.89
2022-10-09T04:27:43.896Z,5.86
2022-10-09T04:28:44.017Z,5.81
2022-10-09T04:29:44.196Z,5.74
2022-10-09T04:30:43.904Z,5.70
2022-10-09T04:31:43.901Z,5.66
2022-10-09T04:32:43.864Z,5.63
2022-10-09T04:33:44.539Z,5.56
2022-10-09T04:34:43.880Z,5.53
2022-10-09T04:35:43.844Z,5.50
2022-10-09T04:36:44.079Z,5.48
2022-10-09T04:37:43.828Z,5.45
2022-10-09T04:38:43.785Z,5.41
2022-10-09T04:39:43.767Z,5.38
2022-10-09T04:40:43.827Z,5.35
2022-10-09T04:41:43.748Z,5.40
2022-10-09T04:42:43.755Z,5.45
2022-10-09T04:43:44.007Z,5.48
2022-10-09T04:44:43.737Z,5.48
2022-10-09T04:45:43.734Z,5.48
2022-10-09T04:46:43.735Z,5.46
2022-10-09T04:47:43.696Z,5.48
2022-10-09T04:48:43.697Z,5.43
2022-10-09T04:49:43.683Z,5.43
2022-10-09T04:50:43.976Z,5.41
2022-10-09T04:51:43.658Z,5.40
2022-10-09T04:52:43.693Z,5.37
2022-10-09T04:53:43.633Z,5.37
2022-10-09T04:54:43.619Z,5.35
2022-10-09T04:55:43.617Z,5.30
2022-10-09T04:56:43.599Z,5.31
2022-10-09T04:57:43.868Z,5.31
2022-10-09T04:58:44.192Z,5.32
2022-10-09T04:59:43.566Z,5.32
2022-10-09T05:00:43.710Z,5.32
2022-10-09T05:01:43.705Z,5.34
2022-10-09T05:02:43.597Z,5.32
2022-10-09T05:03:43.535Z,5.30
2022-10-09T05:04:43.851Z,5.28
2022-10-09T05:05:43.534Z,5.27
2022-10-09T05:06:43.500Z,5.23
2022-10-09T05:07:43.500Z,5.23
2022-10-09T05:08:43.483Z,5.23
2022-10-09T05:09:43.463Z,5.23
2022-10-09T05:10:43.483Z,5.23
2022-10-09T05:11:43.759Z,5.20
2022-10-09T05:12:43.437Z,5.20
2022-10-09T05:13:43.429Z,5.23
2022-10-09T05:14:43.442Z,5.23
2022-10-09T05:15:43.408Z,5.23
2022-10-09T05:17:01.315Z,5.23
2022-10-09T05:17:43.462Z,5.25
2022-10-09T05:18:43.656Z,5.22
2022-10-09T05:19:43.361Z,5.25
2022-10-09T05:20:43.351Z,5.22
2022-10-09T05:21:43.340Z,5.20
2022-10-09T05:22:43.391Z,5.20
2022-10-09T05:23:43.333Z,5.17
2022-10-09T05:24:43.314Z,5.17
2022-10-09T05:25:43.577Z,5.16
2022-10-09T05:26:43.289Z,5.16
2022-10-09T05:27:43.288Z,5.14
2022-10-09T05:28:43.373Z,5.12
2022-10-09T05:29:43.249Z,5.12
2022-10-09T05:30:43.248Z,5.12
2022-10-09T05:31:48.372Z,5.12
2022-10-09T05:32:43.246Z,5.12
2022-10-09T05:33:43.221Z,5.13
2022-10-09T05:34:43.247Z,5.13
2022-10-09T05:35:43.209Z,5.13
2022-10-09T05:36:43.193Z,5.12
2022-10-09T05:37:43.173Z,5.09
2022-10-09T05:38:43.448Z,5.12
2022-10-09T05:39:43.161Z,5.07
2022-10-09T05:40:43.178Z,5.09
2022-10-09T05:41:43.133Z,5.09
2022-10-09T05:42:43.154Z,5.09
2022-10-09T05:43:43.109Z,5.09
2022-10-09T05:44:43.104Z,5.10
2022-10-09T05:45:43.430Z,5.10
2022-10-09T05:46:43.110Z,5.12
2022-10-09T05:47:43.100Z,5.13
2022-10-09T05:48:43.078Z,5.14
2022-10-09T05:49:43.051Z,5.16
2022-10-09T05:50:43.051Z,5.14
2022-10-09T05:51:43.031Z,5.13
2022-10-09T05:52:43.344Z,5.17
2022-10-09T05:53:43.018Z,5.16
2022-10-09T05:54:43.006Z,5.17
2022-10-09T05:55:42.996Z,5.16
2022-10-09T05:56:42.996Z,5.16
2022-10-09T05:57:43.027Z,5.17
2022-10-09T05:58:42.988Z,5.19
2022-10-09T05:59:43.245Z,5.17
2022-10-09T06:00:42.952Z,5.19
2022-10-09T06:01:42.962Z,5.19
2022-10-09T06:02:43.002Z,5.20
2022-10-09T06:03:42.904Z,5.20
2022-10-09T06:04:42.970Z,5.20
2022-10-09T06:05:42.934Z,5.19
2022-10-09T06:06:43.184Z,5.19
2022-10-09T06:07:42.871Z,5.22
2022-10-09T06:08:42.860Z,5.23
2022-10-09T06:09:42.843Z,5.27
2022-10-09T06:10:42.869Z,5.30
2022-10-09T06:11:42.820Z,5.30
2022-10-09T06:12:42.823Z,5.32
2022-10-09T06:13:43.087Z,5.32
2022-10-09T06:14:42.803Z,5.37
2022-10-09T06:15:42.793Z,5.41
2022-10-09T06:16:42.879Z,5.46
2022-10-09T06:17:42.785Z,5.52
2022-10-09T06:18:46.704Z,5.59
2022-10-09T06:19:42.748Z,5.66
2022-10-09T06:20:43.024Z,5.71
2022-10-09T06:21:42.740Z,5.78
2022-10-09T06:22:42.764Z,5.86
2022-10-09T06:23:42.705Z,5.92
2022-10-09T06:24:42.701Z,6.00
2022-10-09T06:25:42.710Z,6.04
2022-10-09T06:26:42.701Z,6.10
2022-10-09T06:27:42.945Z,6.16
2022-10-09T06:28:42.780Z,6.22
2022-10-09T06:29:42.646Z,6.29
2022-10-09T06:30:42.667Z,6.38
2022-10-09T06:31:42.620Z,6.43
2022-10-09T06:32:42.612Z,6.48
2022-10-09T06:33:42.609Z,6.51
2022-10-09T06:34:42.915Z,6.53
2022-10-09T06:35:42.586Z,6.53
2022-10-09T06:36:42.580Z,6.53
2022-10-09T06:37:42.565Z,6.56
2022-10-09T06:38:42.555Z,6.63
2022-10-09T06:39:42.539Z,6.68
2022-10-09T06:40:42.566Z,6.71
2022-10-09T06:41:42.840Z,6.76
2022-10-09T06:42:42.528Z,6.79
2022-10-09T06:43:42.498Z,6.81
2022-10-09T06:44:42.531Z,6.89
2022-10-09T06:45:42.521Z,6.95
2022-10-09T06:46:42.508Z,7.02
2022-10-09T06:47:42.460Z,7.15
2022-10-09T06:48:43.759Z,7.24
2022-10-09T06:49:42.448Z,7.37
2022-10-09T06:50:42.422Z,7.45
2022-10-09T06:51:42.445Z,7.56
2022-10-09T06:52:42.449Z,7.72
2022-10-09T06:53:42.453Z,7.85
2022-10-09T06:54:42.397Z,7.99
2022-10-09T06:55:42.411Z,8.17
2022-10-09T06:56:42.378Z,8.26
2022-10-09T06:57:42.425Z,8.32
2022-10-09T06:58:42.384Z,8.42
2022-10-09T06:59:42.344Z,8.53
2022-10-09T07:00:42.648Z,8.66
2022-10-09T07:01:42.413Z,8.76
2022-10-09T07:02:44.137Z,8.87
2022-10-09T07:03:42.292Z,8.96
2022-10-09T07:04:42.336Z,9.04
2022-10-09T07:05:42.331Z,9.10
2022-10-09T07:06:42.295Z,9.24
2022-10-09T07:07:42.305Z,9.39
2022-10-09T07:08:42.235Z,9.50
2022-10-09T07:09:43.218Z,9.67
2022-10-09T07:10:42.376Z,9.86
2022-10-09T07:11:42.226Z,9.97
2022-10-09T07:12:42.246Z,10.09
2022-10-09T07:13:42.195Z,10.21
2022-10-09T07:14:42.188Z,10.34
2022-10-09T07:15:42.259Z,10.51
2022-10-09T07:16:42.243Z,10.59
2022-10-09T07:17:42.202Z,10.65
2022-10-09T07:18:42.441Z,10.71
2022-10-09T07:19:42.126Z,10.77
2022-10-09T07:20:42.151Z,10.73
2022-10-09T07:21:42.172Z,10.78
2022-10-09T07:22:42.162Z,10.77
2022-10-09T07:23:42.103Z,10.77
2022-10-09T07:24:42.081Z,10.78
2022-10-09T07:25:42.350Z,10.91
2022-10-09T07:26:42.105Z,11.02
2022-10-09T07:27:42.053Z,11.11
2022-10-09T07:28:42.143Z,11.21
2022-10-09T07:29:42.060Z,11.21
2022-10-09T07:30:42.074Z,11.29
2022-10-09T07:31:42.015Z,11.36
2022-10-09T07:32:42.281Z,11.34
2022-10-09T07:33:42.030Z,11.34
2022-10-09T07:34:42.040Z,11.41
2022-10-09T07:35:42.037Z,11.43
2022-10-09T07:36:41.939Z,11.53
2022-10-09T07:37:42.004Z,11.52
2022-10-09T07:38:41.938Z,11.53
2022-10-09T07:39:45.014Z,11.53
2022-10-09T07:40:41.979Z,11.65
2022-10-09T07:41:41.933Z,11.77
2022-10-09T07:42:41.903Z,11.90
2022-10-09T07:43:41.878Z,11.96
2022-10-09T07:44:41.859Z,12.15
2022-10-09T07:45:41.892Z,12.31
2022-10-09T07:46:42.242Z,12.44
2022-10-09T07:47:41.830Z,12.54
2022-10-09T07:48:41.873Z,12.67
2022-10-09T07:49:41.823Z,12.79
2022-10-09T07:50:41.813Z,12.84
2022-10-09T07:51:41.806Z,12.84
2022-10-09T07:52:41.872Z,12.92
2022-10-09T07:53:42.069Z,13.00
2022-10-09T07:54:41.773Z,13.18
2022-10-09T07:55:41.765Z,13.22
2022-10-09T07:56:41.743Z,13.14
2022-10-09T07:57:41.722Z,13.30
2022-10-09T07:58:41.793Z,13.41
2022-10-09T07:59:41.740Z,13.59
2022-10-09T08:00:42.016Z,13.67
2022-10-09T08:01:41.794Z,13.84
2022-10-09T08:02:41.792Z,14.01
2022-10-09T08:03:41.736Z,14.04
2022-10-09T08:04:41.772Z,14.07
2022-10-09T08:05:41.692Z,14.17
2022-10-09T08:06:41.645Z,14.21
2022-10-09T08:07:41.965Z,14.35
2022-10-09T08:08:41.640Z,14.43
2022-10-09T08:09:41.629Z,14.43
2022-10-09T08:10:41.992Z,14.47
2022-10-09T08:11:41.640Z,14.42
2022-10-09T08:12:41.643Z,14.47
2022-10-09T08:13:41.599Z,14.61
2022-10-09T08:14:41.864Z,14.83
2022-10-09T08:15:41.592Z,14.68
2022-10-09T08:16:41.595Z,14.54
2022-10-09T08:17:41.584Z,14.50
2022-10-09T08:18:41.537Z,14.53
2022-10-09T08:19:41.497Z,14.47
2022-10-09T08:20:41.516Z,14.47
2022-10-09T08:21:41.786Z,14.27
2022-10-09T08:22:41.574Z,14.32
2022-10-09T08:23:41.477Z,14.37
2022-10-09T08:24:41.434Z,14.29
2022-10-09T08:25:41.440Z,14.39
2022-10-09T08:26:41.437Z,14.50
2022-10-09T08:27:41.471Z,14.53
2022-10-09T08:28:41.872Z,14.60
2022-10-09T08:29:41.405Z,14.54
2022-10-09T08:30:41.490Z,14.57
2022-10-09T08:31:41.523Z,14.69
2022-10-09T08:32:41.365Z,14.94
2022-10-09T08:33:41.413Z,15.09
2022-10-09T08:34:41.395Z,15.28
2022-10-09T08:35:41.618Z,15.42
2022-10-09T08:36:41.386Z,15.39
2022-10-09T08:37:41.358Z,15.28
2022-10-09T08:38:48.749Z,15.23
2022-10-09T08:39:41.434Z,15.15
2022-10-09T08:40:41.374Z,15.15
2022-10-09T08:41:41.305Z,15.24
2022-10-09T08:42:41.565Z,15.38
2022-10-09T08:43:41.286Z,15.45
2022-10-09T08:44:41.236Z,15.66
2022-10-09T08:45:41.348Z,15.86
2022-10-09T08:46:41.354Z,16.14
2022-10-09T08:47:41.338Z,16.40
2022-10-09T08:48:41.237Z,16.45
2022-10-09T08:49:41.471Z,16.56
2022-10-09T08:50:41.269Z,16.65
2022-10-09T08:51:41.171Z,16.71
2022-10-09T08:52:41.203Z,16.58
2022-10-09T08:53:41.204Z,16.42
2022-10-09T08:54:41.200Z,16.40
2022-10-09T08:55:41.104Z,16.31
2022-10-09T08:56:41.386Z,16.15
2022-10-09T08:57:41.163Z,16.15
2022-10-09T08:58:41.362Z,16.15
2022-10-09T08:59:41.092Z,16.31
2022-10-09T09:00:41.117Z,16.41
2022-10-09T09:01:41.170Z,16.45
2022-10-09T09:02:41.209Z,16.52
2022-10-09T09:03:41.060Z,16.58
2022-10-09T09:04:41.114Z,16.65
2022-10-09T09:05:41.137Z,16.75
2022-10-09T09:06:40.989Z,16.93
2022-10-09T09:07:41.046Z,17.13
2022-10-09T09:08:40.998Z,17.22
2022-10-09T09:09:41.383Z,17.30
2022-10-09T09:10:41.117Z,17.29
2022-10-09T09:11:40.956Z,17.35
2022-10-09T09:12:41.052Z,17.18
2022-10-09T09:13:41.004Z,17.28
2022-10-09T09:14:40.961Z,17.26
2022-10-09T09:15:41.015Z,17.35
2022-10-09T09:16:41.140Z,17.46
2022-10-09T09:17:40.957Z,17.53
2022-10-09T09:18:43.029Z,17.51
2022-10-09T09:19:40.952Z,17.54
2022-10-09T09:20:40.959Z,17.54
2022-10-09T09:21:41.208Z,17.59
2022-10-09T09:22:40.894Z,17.51
2022-10-09T09:23:40.860Z,17.48
2022-10-09T09:24:40.853Z,17.57
2022-10-09T09:25:40.941Z,17.62
2022-10-09T09:26:40.832Z,17.81
2022-10-09T09:27:40.846Z,18.17
2022-10-09T09:28:40.976Z,18.28
2022-10-09T09:29:40.856Z,18.18
2022-10-09T09:30:40.909Z,18.04
2022-10-09T09:31:40.899Z,18.12
2022-10-09T09:32:40.752Z,17.97
2022-10-09T09:33:44.407Z,18.07
2022-10-09T09:34:40.794Z,18.24
2022-10-09T09:35:40.766Z,18.36
2022-10-09T09:36:40.752Z,18.55
2022-10-09T09:37:40.835Z,18.79
2022-10-09T09:38:54.363Z,18.98
2022-10-09T09:40:45.886Z,18.65
2022-10-09T09:41:40.675Z,18.64
2022-10-09T09:42:40.651Z,18.72
2022-10-09T09:43:40.657Z,18.42
2022-10-09T09:44:40.696Z,18.47
2022-10-09T09:45:40.620Z,18.68
2022-10-09T09:46:41.010Z,18.91
2022-10-09T09:47:40.665Z,18.70
2022-10-09T09:48:40.614Z,18.47
2022-10-09T09:49:40.632Z,18.50
2022-10-09T09:50:50.451Z,18.64
2022-10-09T09:51:40.597Z,18.77
2022-10-09T09:52:40.631Z,18.94
2022-10-09T09:53:40.805Z,18.92
2022-10-09T09:54:40.567Z,19.10
2022-10-09T09:55:40.641Z,19.25
2022-10-09T09:57:10.587Z,19.36
2022-10-09T09:57:40.529Z,19.51
2022-10-09T09:58:40.567Z,19.76
2022-10-09T09:59:40.531Z,20.00
2022-10-09T10:00:40.850Z,19.79
2022-10-09T10:01:40.525Z,19.20
2022-10-09T10:02:40.503Z,19.24
2022-10-09T10:03:40.466Z,19.35
2022-10-09T10:04:43.260Z,19.55
2022-10-09T10:05:40.410Z,19.84
2022-10-09T10:06:40.383Z,20.12
2022-10-09T10:07:40.662Z,20.25
2022-10-09T10:08:40.440Z,20.21
2022-10-09T10:09:40.537Z,19.63
2022-10-09T10:10:40.468Z,19.17
2022-10-09T10:11:40.421Z,18.65
2022-10-09T10:12:40.394Z,17.84
2022-10-09T10:13:40.354Z,17.64
2022-10-09T10:14:40.618Z,17.92
2022-10-09T10:15:40.367Z,18.39
2022-10-09T10:16:40.459Z,18.87
2022-10-09T10:17:40.251Z,19.32
2022-10-09T10:18:40.364Z,19.79
2022-10-09T10:19:40.286Z,20.18
2022-10-09T10:20:40.270Z,20.56
2022-10-09T10:21:40.568Z,20.39
2022-10-09T10:22:40.288Z,20.24
2022-10-09T10:23:40.206Z,20.25
2022-10-09T10:24:40.288Z,20.28
2022-10-09T10:25:40.322Z,20.50
2022-10-09T10:26:40.225Z,20.66
2022-10-09T10:27:40.172Z,20.79
2022-10-09T10:28:40.552Z,20.86
2022-10-09T10:29:40.260Z,20.87
2022-10-09T10:30:40.223Z,21.06
2022-10-09T10:31:40.263Z,21.30
2022-10-09T10:32:40.156Z,21.53
2022-10-09T10:33:40.167Z,21.64
2022-10-09T10:34:40.334Z,21.71
2022-10-09T10:35:40.160Z,21.92
2022-10-09T10:36:40.067Z,21.83
2022-10-09T10:37:40.163Z,21.75
2022-10-09T10:38:40.194Z,20.83
2022-10-09T10:39:40.033Z,20.41
2022-10-09T10:40:40.171Z,20.25
2022-10-09T10:41:40.338Z,20.31
2022-10-09T10:42:40.045Z,19.90
2022-10-09T10:43:40.064Z,19.54
2022-10-09T10:44:40.012Z,19.63
2022-10-09T10:45:40.071Z,19.86
2022-10-09T10:46:40.135Z,19.40
2022-10-09T10:47:39.981Z,19.42
2022-10-09T10:48:39.985Z,19.75
2022-10-09T10:49:40.003Z,20.05
2022-10-09T10:50:40.056Z,20.46
2022-10-09T10:51:40.002Z,20.86
2022-10-09T10:52:40.044Z,20.98
2022-10-09T10:53:40.207Z,20.10
2022-10-09T10:54:39.896Z,19.60
2022-10-09T10:55:39.934Z,19.72
2022-10-09T10:56:39.941Z,19.53
2022-10-09T10:57:39.909Z,19.78
2022-10-09T10:58:39.989Z,20.18
2022-10-09T10:59:39.960Z,20.61
2022-10-09T11:00:39.891Z,20.69
2022-10-09T11:01:39.819Z,20.16
2022-10-09T11:02:42.046Z,20.31
2022-10-09T11:03:39.989Z,20.84
2022-10-09T11:04:39.880Z,21.32
2022-10-09T11:05:40.093Z,21.67
2022-10-09T11:06:39.838Z,21.91
2022-10-09T11:07:39.838Z,21.91
2022-10-09T11:08:39.783Z,22.12
2022-10-09T11:09:39.780Z,22.29
2022-10-09T11:10:39.820Z,21.82
2022-10-09T11:11:39.814Z,21.81
2022-10-09T11:12:48.413Z,21.74
2022-10-09T11:13:39.721Z,21.95
2022-10-09T11:14:39.743Z,22.06
2022-10-09T11:15:39.756Z,22.32
2022-10-09T11:16:39.853Z,22.69
2022-10-09T11:17:39.670Z,22.94
2022-10-09T11:18:39.728Z,23.12
2022-10-09T11:19:44.542Z,23.04
2022-10-09T11:20:39.715Z,22.64
2022-10-09T11:21:39.687Z,22.34
2022-10-09T11:22:39.718Z,22.38
2022-10-09T11:23:39.663Z,22.44
2022-10-09T11:24:39.664Z,22.64
2022-10-09T11:25:39.761Z,22.68
2022-10-09T11:26:39.956Z,22.99
2022-10-09T11:27:39.615Z,23.39
2022-10-09T11:28:39.698Z,23.71
2022-10-09T11:29:39.583Z,23.19
2022-10-09T11:30:39.513Z,22.86
2022-10-09T11:31:39.752Z,21.44
2022-10-09T11:33:39.845Z,20.99
2022-10-09T11:34:39.575Z,21.11
2022-10-09T11:35:39.544Z,21.30
2022-10-09T11:36:39.475Z,21.60
2022-10-09T11:37:39.524Z,21.34
2022-10-09T11:38:39.461Z,21.27
2022-10-09T11:39:39.494Z,21.02
2022-10-09T11:40:39.798Z,20.84
2022-10-09T11:41:39.540Z,20.62
2022-10-09T11:42:39.472Z,20.33
2022-10-09T11:43:39.389Z,20.49
2022-10-09T11:44:39.438Z,20.90
2022-10-09T11:45:39.491Z,21.46
2022-10-09T11:46:39.506Z,22.06
2022-10-09T11:47:39.628Z,22.52
2022-10-09T11:48:39.370Z,23.15
2022-10-09T11:49:39.355Z,23.39
2022-10-09T11:50:39.464Z,23.57
2022-10-09T11:51:39.370Z,22.77
2022-10-09T11:52:39.479Z,22.19
2022-10-09T11:53:39.377Z,22.37
2022-10-09T11:54:39.603Z,21.90
2022-10-09T11:55:39.297Z,21.81
2022-10-09T11:56:39.322Z,22.09
2022-10-09T11:57:39.427Z,22.44
2022-10-09T11:58:39.419Z,22.60
2022-10-09T11:59:39.268Z,22.90
2022-10-09T12:00:39.316Z,23.22
2022-10-09T12:01:39.263Z,22.80
2022-10-09T12:02:39.314Z,22.57
2022-10-09T12:03:39.208Z,22.60
2022-10-09T12:04:56.219Z,22.75
2022-10-09T12:05:39.207Z,22.97
2022-10-09T12:06:39.316Z,23.11
2022-10-09T12:08:39.212Z,23.09
2022-10-09T12:09:39.161Z,23.35
2022-10-09T12:10:39.325Z,23.34
2022-10-09T12:11:39.161Z,23.49
2022-10-09T12:12:39.194Z,23.17
2022-10-09T12:13:39.175Z,23.22
2022-10-09T12:14:39.479Z,22.96
2022-10-09T12:15:39.241Z,22.27
2022-10-09T12:16:39.291Z,21.81
2022-10-09T12:17:39.264Z,20.86
2022-10-09T12:18:39.144Z,20.74
2022-10-09T12:19:39.045Z,20.80
2022-10-09T12:20:39.102Z,20.49
2022-10-09T12:21:39.364Z,20.56
2022-10-09T12:22:39.150Z,20.69
2022-10-09T12:23:38.999Z,20.66
2022-10-09T12:24:39.102Z,20.84
2022-10-09T12:25:38.995Z,21.27
2022-10-09T12:26:39.022Z,21.74
2022-10-09T12:27:38.972Z,21.78
2022-10-09T12:28:39.161Z,21.75
2022-10-09T12:29:38.992Z,21.75
2022-10-09T12:30:41.691Z,21.90
2022-10-09T12:31:38.924Z,22.02
2022-10-09T12:32:38.901Z,22.27
2022-10-09T12:33:38.934Z,21.63
2022-10-09T12:34:39.240Z,21.34
2022-10-09T12:35:38.930Z,21.29
2022-10-09T12:36:38.928Z,21.44
2022-10-09T12:37:38.859Z,20.68
2022-10-09T12:38:38.881Z,19.86
2022-10-09T12:39:38.933Z,19.32
2022-10-09T12:40:39.052Z,18.94
2022-10-09T12:41:38.803Z,18.97
2022-10-09T12:42:38.818Z,19.20
2022-10-09T12:43:38.822Z,18.98
2022-10-09T12:44:38.817Z,19.24
2022-10-09T12:45:38.822Z,19.21
2022-10-09T12:46:39.135Z,19.48
2022-10-09T12:47:38.804Z,19.80
2022-10-09T12:48:38.766Z,19.66
2022-10-09T12:49:38.711Z,19.14
2022-10-09T12:50:38.772Z,18.99
2022-10-09T12:51:38.764Z,18.98
2022-10-09T12:52:38.754Z,19.01
2022-10-09T12:53:38.761Z,19.18
2022-10-09T12:54:38.702Z,19.13
2022-10-09T12:55:38.749Z,19.21
2022-10-09T12:56:38.738Z,19.57
2022-10-09T12:57:38.705Z,19.79
2022-10-09T12:58:39.076Z,20.02
2022-10-09T12:59:38.649Z,20.42
2022-10-09T13:00:38.738Z,20.93
2022-10-09T13:01:38.826Z,21.35
2022-10-09T13:02:38.779Z,21.44
2022-10-09T13:03:38.650Z,21.38
2022-10-09T13:04:38.639Z,21.06
2022-10-09T13:05:38.895Z,20.59
2022-10-09T13:06:38.609Z,20.58
2022-10-09T13:07:38.576Z,20.77
2022-10-09T13:08:38.538Z,21.13
2022-10-09T13:09:38.622Z,21.34